Time;durP1;ratioP1;P1;durP2;ratioP2;P2;SDS_P1;SDS_P2;PMS_P1;PMS_P2;Temp;Humidity;BMP_temperature;BMP_pressure;BME280_temperature;BME280_humidity;BME280_pressure;Samples;Min_cycle;Max_cycle;Signal;HPM_P1;HPM_P2
2020/12/17 00:00:05;;;;;;;359.13;58.00;;;4.00;97.10;;;;;;4958972;29;20039;-77
2020/12/17 00:02:31;;;;;;;461.42;61.22;;;4.00;97.10;;;;;;4955634;28;20031;-78
2020/12/17 00:04:56;;;;;;;;;;;3.90;97.10;;;;;;4958695;28;20046;-77
2020/12/17 00:07:22;;;;;;;577.80;62.17;;;3.90;97.20;;;;;;4977748;28;19977;-79
2020/12/17 00:09:47;;;;;;;;;;;3.90;97.30;;;;;;4980179;28;20035;-78
2020/12/17 00:12:13;;;;;;;414.10;58.17;;;3.90;97.30;;;;;;4979136;28;19917;-78
2020/12/17 00:14:38;;;;;;;;;;;3.90;97.30;;;;;;4964126;28;20024;-79
2020/12/17 00:17:04;;;;;;;515.50;67.63;;;3.90;97.40;;;;;;4977448;28;19973;-78
2020/12/17 00:19:29;;;;;;;;;;;3.90;97.40;;;;;;4963378;29;20043;-78
2020/12/17 00:21:55;;;;;;;320.40;63.35;;;3.90;97.50;;;;;;4976855;28;19907;-79
2020/12/17 00:24:21;;;;;;;;;;;3.90;97.50;;;;;;4978434;28;20042;-79
2020/12/17 00:26:46;;;;;;;352.08;54.35;;;3.90;97.50;;;;;;4965158;29;19906;-79
2020/12/17 00:29:12;;;;;;;;;;;3.90;97.60;;;;;;4981465;28;20027;-79
2020/12/17 00:31:37;;;;;;;559.33;63.25;;;3.90;97.60;;;;;;4966611;29;19942;-80
2020/12/17 00:34:03;;;;;;;;;;;3.90;97.60;;;;;;4957185;29;20042;-77
2020/12/17 00:36:28;;;;;;;393.10;65.07;;;3.90;97.70;;;;;;4976201;28;19912;-79
2020/12/17 00:38:54;;;;;;;;;;;3.90;97.70;;;;;;4980307;28;20098;-78
2020/12/17 00:41:20;;;;;;;466.73;80.30;;;3.90;97.70;;;;;;4965803;28;19907;-79
2020/12/17 00:43:45;;;;;;;;;;;3.90;97.70;;;;;;4966256;28;20024;-79
2020/12/17 00:46:14;;;;;;;394.42;57.90;;;3.90;97.80;;;;;;4960774;28;19910;-79
2020/12/17 00:48:40;;;;;;;553.30;68.88;;;3.90;97.80;;;;;;4957649;28;20038;-78
2020/12/17 00:51:05;;;;;;;;;;;3.90;97.80;;;;;;4960844;29;20389;-78
2020/12/17 00:53:31;;;;;;;594.08;58.45;;;3.90;97.80;;;;;;4959068;28;20322;-78
2020/12/17 00:55:56;;;;;;;;;;;3.90;97.80;;;;;;4946864;29;20071;-79
2020/12/17 00:58:23;;;;;;;558.38;66.82;;;3.90;97.80;;;;;;4943706;29;19950;-78
2020/12/17 01:00:49;;;;;;;;;;;3.90;97.90;;;;;;4947526;29;20044;-79
2020/12/17 01:03:14;;;;;;;596.35;68.50;;;3.90;97.90;;;;;;4962368;29;19911;-78
2020/12/17 01:05:40;;;;;;;;;;;3.90;97.90;;;;;;4947143;29;20015;-79
2020/12/17 01:08:06;;;;;;;548.42;58.70;;;3.90;98.00;;;;;;4944779;29;19910;-79
2020/12/17 01:10:31;;;;;;;;;;;3.90;98.00;;;;;;4943565;29;20032;-79
2020/12/17 01:12:57;;;;;;;472.60;56.85;;;3.90;98.00;;;;;;4962291;29;19932;-79
2020/12/17 01:15:22;;;;;;;;;;;3.90;98.00;;;;;;4944352;29;20031;-78
2020/12/17 01:17:50;;;;;;;604.00;68.60;;;3.90;98.00;;;;;;4957289;29;19934;-79
2020/12/17 01:20:16;;;;;;;521.85;66.78;;;3.90;98.00;;;;;;4959870;29;20063;-78
2020/12/17 01:22:41;;;;;;;;;;;3.90;98.00;;;;;;4944900;29;20054;-78
2020/12/17 01:25:07;;;;;;;550.95;60.53;;;3.90;98.00;;;;;;4956857;28;19992;-78
2020/12/17 01:27:32;;;;;;;;;;;3.90;98.00;;;;;;4959405;28;20023;-78
2020/12/17 01:29:58;;;;;;;654.47;66.57;;;3.90;98.10;;;;;;4950921;29;19911;-78
2020/12/17 01:32:24;;;;;;;;;;;3.90;98.10;;;;;;4976321;28;20433;-77
2020/12/17 01:34:50;;;;;;;661.47;64.93;;;3.90;98.10;;;;;;4956185;28;19977;-79
2020/12/17 01:37:16;;;;;;;602.17;61.42;;;3.90;98.10;;;;;;4977478;28;20034;-79
2020/12/17 01:39:42;;;;;;;;;;;3.90;98.10;;;;;;4961103;29;20047;-79
2020/12/17 01:42:08;;;;;;;606.38;59.42;;;3.90;98.10;;;;;;4976372;28;20382;-78
2020/12/17 01:44:40;;;;;;;;;;;3.90;98.10;;;;;;4966949;28;20031;-79
2020/12/17 01:47:06;;;;;;;650.17;63.35;;;3.90;98.10;;;;;;4966494;28;20363;-79
2020/12/17 01:49:32;;;;;;;;;;;3.90;98.10;;;;;;4966228;29;20404;-79
2020/12/17 01:51:58;;;;;;;460.58;51.92;;;3.90;98.10;;;;;;4963630;28;19966;-78
2020/12/17 01:54:24;;;;;;;;;;;3.80;98.10;;;;;;4962634;28;20491;-78
2020/12/17 01:57:00;;;;;;;407.08;49.97;;;3.80;98.10;;;;;;4963690;29;19953;-79
2020/12/17 01:59:28;;;;;;;291.65;47.45;;;3.90;98.20;;;;;;4960920;28;20802;-79
2020/12/17 02:01:54;;;;;;;228.35;43.90;;;3.90;98.20;;;;;;4962853;29;20407;-79
2020/12/17 02:04:25;;;;;;;240.60;41.90;;;3.90;98.20;;;;;;4960861;29;20027;-79
2020/12/17 02:06:51;;;;;;;195.43;41.67;;;3.90;98.20;;;;;;4942961;29;20027;-78
2020/12/17 02:09:18;;;;;;;182.20;38.08;;;3.80;98.20;;;;;;4942859;29;20043;-79
2020/12/17 02:12:10;;;;;;;174.30;39.53;;;3.90;98.20;;;;;;4963283;28;20032;-78
2020/12/17 02:14:35;;;;;;;190.38;39.97;;;3.90;98.20;;;;;;4958055;29;20125;-78
2020/12/17 02:17:01;;;;;;;;;;;3.90;98.20;;;;;;4964580;29;20039;-78
2020/12/17 02:19:26;;;;;;;140.60;32.70;;;3.90;98.20;;;;;;4979467;28;19914;-79
2020/12/17 02:21:52;;;;;;;;;;;3.90;98.50;;;;;;4977765;28;20154;-78
2020/12/17 02:24:21;;;;;;;121.80;29.17;;;3.90;98.20;;;;;;4964061;29;19907;-78
2020/12/17 02:26:47;;;;;;;96.10;26.27;;;3.90;98.20;;;;;;4961088;28;20035;-78
2020/12/17 02:29:13;;;;;;;112.32;30.10;;;3.90;98.20;;;;;;4962550;28;20065;-77
2020/12/17 02:31:39;;;;;;;;;;;3.90;98.20;;;;;;4961090;29;20035;-79
2020/12/17 02:34:04;;;;;;;115.85;28.15;;;3.90;98.20;;;;;;4962563;28;19907;-78
2020/12/17 02:36:30;;;;;;;;;;;3.90;98.20;;;;;;4977412;28;20416;-79
2020/12/17 02:38:56;;;;;;;77.03;23.60;;;4.00;98.20;;;;;;4974776;28;19989;-79
2020/12/17 02:41:21;;;;;;;;;;;3.90;98.20;;;;;;4963892;29;20453;-78
2020/12/17 02:43:47;;;;;;;86.60;24.67;;;3.90;98.20;;;;;;4975037;28;19913;-78
2020/12/17 02:46:12;;;;;;;;;;;3.90;98.20;;;;;;4982525;28;20122;-77
2020/12/17 02:48:38;;;;;;;83.40;24.48;;;3.90;98.20;;;;;;4961053;29;19978;-78
2020/12/17 02:51:03;;;;;;;;;;;4.00;98.20;;;;;;4963209;29;20031;-78
2020/12/17 02:53:29;;;;;;;73.00;21.40;;;3.90;98.20;;;;;;4987960;28;19906;-79
2020/12/17 02:55:54;;;;;;;;;;;3.90;98.20;;;;;;4961210;29;20051;-79
2020/12/17 02:58:21;;;;;;;76.05;22.25;;;3.90;98.10;;;;;;4966923;28;20009;-77
2020/12/17 03:00:46;;;;;;;74.38;22.50;;;4.00;98.20;;;;;;4960775;29;20354;-78
2020/12/17 03:03:12;;;;;;;;;;;3.90;98.10;;;;;;4977904;28;20723;-79
2020/12/17 03:05:38;;;;;;;78.90;24.52;;;4.00;98.20;;;;;;4958629;28;20479;-79
2020/12/17 03:08:03;;;;;;;;;;;3.90;98.10;;;;;;4958650;29;20031;-78
2020/12/17 03:10:29;;;;;;;72.88;23.73;;;3.90;98.10;;;;;;4959799;28;20053;-78
2020/12/17 03:12:54;;;;;;;;;;;3.90;98.10;;;;;;4960261;29;20054;-78
2020/12/17 03:15:20;;;;;;;111.55;29.58;;;3.90;98.10;;;;;;4975919;28;19907;-78
2020/12/17 03:17:45;;;;;;;;;;;3.90;98.00;;;;;;4962564;29;20392;-78
2020/12/17 03:20:11;;;;;;;154.52;33.10;;;3.80;98.00;;;;;;4961692;29;19929;-78
2020/12/17 03:22:37;;;;;;;;;;;3.90;98.00;;;;;;4973062;28;20031;-78
2020/12/17 03:25:07;;;;;;;222.65;42.47;;;3.80;98.00;;;;;;4958428;29;19910;-79
2020/12/17 03:27:33;;;;;;;340.48;43.83;;;3.80;98.00;;;;;;4959186;28;20035;-79
2020/12/17 03:30:05;;;;;;;;;;;3.90;98.00;;;;;;4961508;28;20143;-78
2020/12/17 03:32:31;;;;;;;315.85;44.00;;;3.80;98.00;;;;;;4961529;28;19937;-78
2020/12/17 03:34:56;;;;;;;;;;;3.80;98.00;;;;;;4958645;29;20436;-78
2020/12/17 03:37:22;;;;;;;252.38;43.75;;;3.80;98.00;;;;;;4958395;29;19918;-79
2020/12/17 03:39:47;;;;;;;;;;;3.90;98.10;;;;;;4959548;28;20037;-79
2020/12/17 03:42:13;;;;;;;232.88;41.90;;;3.80;98.10;;;;;;4973449;28;19910;-79
2020/12/17 03:44:38;;;;;;;;;;;3.80;98.00;;;;;;4959542;29;20032;-78
2020/12/17 03:47:04;;;;;;;225.15;40.42;;;3.90;98.10;;;;;;4963658;28;19918;-78
2020/12/17 03:49:29;;;;;;;;;;;3.90;98.10;;;;;;4962795;28;20038;-78
2020/12/17 03:51:55;;;;;;;197.23;39.28;;;3.90;98.10;;;;;;4963671;28;20327;-78
2020/12/17 03:54:20;;;;;;;;;;;3.90;98.10;;;;;;4964386;29;20062;-78
2020/12/17 03:56:46;;;;;;;216.70;43.33;;;3.90;98.10;;;;;;4963007;28;19969;-79
2020/12/17 03:59:12;;;;;;;;;;;3.90;98.10;;;;;;4979531;28;20035;-77
2020/12/17 04:01:37;;;;;;;193.32;39.28;;;3.90;98.10;;;;;;4964754;28;19913;-79
2020/12/17 04:04:03;;;;;;;;;;;3.90;98.10;;;;;;4966348;28;20480;-77
2020/12/17 04:06:28;;;;;;;228.85;42.22;;;3.90;98.00;;;;;;4963268;28;19910;-77
2020/12/17 04:08:54;;;;;;;;;;;3.90;98.00;;;;;;4982802;28;20055;-78
2020/12/17 04:11:19;;;;;;;227.45;42.83;;;3.90;98.00;;;;;;4977983;28;19965;-77
2020/12/17 04:13:45;;;;;;;;;;;3.80;98.00;;;;;;4967087;29;20078;-79
2020/12/17 04:16:10;;;;;;;239.80;45.00;;;3.80;98.00;;;;;;4963566;29;20397;-79
2020/12/17 04:18:36;;;;;;;;;;;3.80;98.00;;;;;;4959841;29;20027;-78
2020/12/17 04:21:02;;;;;;;280.63;46.28;;;3.90;98.10;;;;;;4967392;29;19911;-79
2020/12/17 04:23:27;;;;;;;;;;;3.80;98.00;;;;;;4965208;29;20742;-78
2020/12/17 04:25:53;;;;;;;268.10;44.58;;;3.80;98.00;;;;;;4979625;28;19914;-78
2020/12/17 04:28:18;;;;;;;;;;;3.90;98.10;;;;;;4979855;28;20050;-78
2020/12/17 04:30:44;;;;;;;254.10;46.08;;;3.80;98.00;;;;;;4982703;28;19910;-78
2020/12/17 04:33:10;;;;;;;;;;;3.90;98.10;;;;;;4964773;29;20511;-79
2020/12/17 04:35:35;;;;;;;307.60;46.22;;;3.90;98.10;;;;;;4964606;29;19906;-78
2020/12/17 04:38:01;;;;;;;;;;;3.90;98.10;;;;;;4965617;29;20050;-78
2020/12/17 04:40:27;;;;;;;242.82;43.92;;;3.80;98.10;;;;;;4964374;28;20422;-78
2020/12/17 04:42:53;;;;;;;;;;;3.80;98.00;;;;;;4977557;28;20027;-78
2020/12/17 04:45:19;;;;;;;274.42;44.42;;;3.80;98.10;;;;;;4961482;28;20299;-78
2020/12/17 04:47:47;;;;;;;315.13;47.33;;;3.80;98.00;;;;;;4962555;29;20020;-78
2020/12/17 04:50:15;;;;;;;330.95;52.55;;;3.80;98.00;;;;;;4963674;29;20091;-78
2020/12/17 04:52:42;;;;;;;228.52;43.88;;;3.80;98.00;;;;;;4965831;28;20020;-77
2020/12/17 04:55:08;;;;;;;286.90;47.42;;;3.80;98.10;;;;;;4976927;28;20059;-78
2020/12/17 04:57:45;;;;;;;237.52;41.97;;;3.90;98.10;;;;;;4960972;28;20069;-77
2020/12/17 05:00:12;;;;;;;240.95;47.95;;;3.90;98.10;;;;;;4960682;29;20086;-77
2020/12/17 05:02:38;;;;;;;165.05;39.13;;;3.90;98.10;;;;;;4961002;28;20059;-77
2020/12/17 05:05:04;;;;;;;;;;;3.90;98.10;;;;;;4963277;29;20035;-77
2020/12/17 05:07:29;;;;;;;155.82;35.08;;;3.80;98.00;;;;;;4961071;28;19910;-77
2020/12/17 05:09:55;;;;;;;;;;;3.80;98.00;;;;;;4962882;28;20030;-77
2020/12/17 05:12:20;;;;;;;160.45;39.58;;;3.80;98.00;;;;;;4962412;29;20315;-78
2020/12/17 05:14:47;;;;;;;;;;;3.80;98.00;;;;;;4965433;29;20053;-78
2020/12/17 05:17:13;;;;;;;141.43;33.97;;;3.90;98.00;;;;;;4976671;28;19979;-77
2020/12/17 05:19:42;;;;;;;;;;;3.80;98.00;;;;;;4960855;29;20791;-77
2020/12/17 05:22:11;;;;;;;112.80;29.67;;;3.80;98.00;;;;;;4959573;28;19921;-77
2020/12/17 05:24:37;;;;;;;118.80;32.05;;;3.80;98.00;;;;;;4959460;29;20023;-77
2020/12/17 05:27:03;;;;;;;;;;;3.80;98.00;;;;;;4975712;28;20039;-77
2020/12/17 05:29:29;;;;;;;77.70;23.15;;;3.80;98.00;;;;;;4977225;28;19917;-77
2020/12/17 05:31:54;;;;;;;;;;;3.80;98.00;;;;;;4961363;28;20019;-77
2020/12/17 05:34:20;;;;;;;88.50;23.52;;;3.80;98.00;;;;;;4960598;28;20487;-76
2020/12/17 05:36:47;;;;;;;82.93;24.27;;;3.90;98.00;;;;;;4976480;28;20024;-77
2020/12/17 05:39:17;;;;;;;88.95;25.95;;;3.90;98.00;;;;;;4960327;28;20028;-77
2020/12/17 05:41:46;;;;;;;80.75;23.00;;;3.90;98.00;;;;;;4960247;28;20046;-76
2020/12/17 05:44:29;;;;;;;80.75;25.02;;;3.90;97.90;;;;;;4959060;29;20031;-76
2020/12/17 05:46:56;;;;;;;96.13;30.77;;;3.80;97.90;;;;;;4961384;28;20047;-77
2020/12/17 05:49:27;;;;;;;103.05;26.33;;;3.90;97.90;;;;;;4960082;28;20058;-77
2020/12/17 05:52:17;;;;;;;76.90;23.65;;;3.90;97.90;;;;;;4959379;29;20039;-77
2020/12/17 05:54:52;;;;;;;62.75;20.85;;;3.90;97.90;;;;;;4963549;28;20035;-78
2020/12/17 05:57:18;;;;;;;66.38;22.45;;;3.90;97.80;;;;;;4961114;29;20037;-77
2020/12/17 05:59:56;;;;;;;;;;;3.90;97.80;;;;;;4963701;29;20087;-77
2020/12/17 06:02:28;;;;;;;71.35;22.05;;;3.90;97.70;;;;;;4963952;28;19914;-77
2020/12/17 06:05:06;;;;;;;71.60;24.27;;;3.80;97.70;;;;;;4960699;28;20034;-76
2020/12/17 06:07:49;;;;;;;77.88;21.85;;;3.80;97.70;;;;;;4959563;29;20041;-76
2020/12/17 06:10:23;;;;;;;87.63;24.52;;;3.90;97.70;;;;;;4959137;28;20023;-77
2020/12/17 06:12:54;;;;;;;80.40;22.75;;;3.90;97.70;;;;;;4957861;28;20115;-77
2020/12/17 06:15:24;;;;;;;73.05;20.65;;;3.90;97.70;;;;;;4958564;29;20028;-76
2020/12/17 06:17:59;;;;;;;78.90;22.25;;;3.90;97.70;;;;;;4976231;28;20062;-77
2020/12/17 06:20:30;;;;;;;69.63;21.42;;;3.90;97.70;;;;;;4960862;29;20039;-77
2020/12/17 06:23:02;;;;;;;66.60;20.45;;;3.90;97.70;;;;;;4960270;28;20102;-77
2020/12/17 06:25:30;;;;;;;69.72;23.52;;;3.90;97.70;;;;;;4973864;28;20050;-78
2020/12/17 06:27:56;;;;;;;87.40;26.02;;;3.90;97.70;;;;;;4973892;28;20050;-76
2020/12/17 06:30:23;;;;;;;;;;;3.90;97.70;;;;;;4975898;28;20046;-77
2020/12/17 06:32:49;;;;;;;92.78;24.45;;;3.90;97.70;;;;;;4959738;28;20600;-77
2020/12/17 06:35:39;;;;;;;92.35;25.17;;;3.90;97.70;;;;;;4959424;29;20171;-77
2020/12/17 06:38:25;;;;;;;90.10;24.90;;;3.90;97.70;;;;;;4960192;28;20031;-77
2020/12/17 06:40:52;;;;;;;94.43;29.20;;;3.90;97.70;;;;;;4960309;28;20035;-77
2020/12/17 06:43:33;;;;;;;114.75;39.75;;;3.90;97.70;;;;;;4962866;28;20038;-76
2020/12/17 06:46:00;;;;;;;116.68;42.13;;;3.90;97.70;;;;;;4957534;28;20571;-76
2020/12/17 06:48:39;;;;;;;184.55;78.05;;;3.90;97.70;;;;;;4971763;28;20618;-75
2020/12/17 06:51:35;;;;;;;145.63;57.22;;;3.90;97.70;;;;;;4957175;29;20046;-76
2020/12/17 06:54:05;;;;;;;92.63;26.63;;;3.90;97.60;;;;;;4973067;28;20027;-76
2020/12/17 06:56:31;;;;;;;106.25;35.97;;;3.90;97.60;;;;;;4972138;28;20094;-76
2020/12/17 06:59:12;;;;;;;;;;;3.90;97.70;;;;;;4957493;28;20039;-76
2020/12/17 07:01:39;;;;;;;101.45;29.13;;;3.90;97.60;;;;;;4957966;28;19910;-77
2020/12/17 07:04:04;;;;;;;130.27;36.55;;;3.90;97.60;;;;;;4959585;29;20027;-76
2020/12/17 07:06:30;;;;;;;;;;;3.90;97.60;;;;;;4961668;29;20031;-76
2020/12/17 07:08:57;;;;;;;130.10;42.35;;;3.90;97.60;;;;;;4960921;28;19917;-77
2020/12/17 07:11:44;;;;;;;104.97;28.90;;;4.00;97.70;;;;;;4959338;28;20027;-76
2020/12/17 07:14:16;;;;;;;108.97;29.55;;;4.00;97.60;;;;;;4955120;29;20412;-77
2020/12/17 07:17:02;;;;;;;132.80;31.05;;;4.00;97.60;;;;;;4956520;28;20027;-77
2020/12/17 07:19:31;;;;;;;114.43;30.80;;;3.90;97.60;;;;;;4956226;29;20046;-75
2020/12/17 07:22:26;;;;;;;99.75;28.98;;;3.90;97.50;;;;;;4971972;28;20538;-76
2020/12/17 07:24:53;;;;;;;101.72;29.10;;;3.90;97.50;;;;;;4950637;28;20058;-76
2020/12/17 07:27:27;;;;;;;100.28;28.73;;;3.90;97.50;;;;;;4963920;28;20019;-77
2020/12/17 07:30:10;;;;;;;109.30;28.58;;;3.90;97.50;;;;;;4963006;28;20365;-76
2020/12/17 07:32:54;;;;;;;125.07;31.75;;;3.90;97.40;;;;;;4966264;28;20023;-77
2020/12/17 07:35:22;;;;;;;113.88;30.17;;;3.90;97.50;;;;;;4974958;28;20054;-76
2020/12/17 07:38:00;;;;;;;121.05;34.28;;;3.90;97.50;;;;;;4959176;29;20034;-77
2020/12/17 07:40:36;;;;;;;163.55;49.83;;;3.90;97.50;;;;;;4961212;28;20148;-77
2020/12/17 07:43:13;;;;;;;326.67;90.32;;;3.90;97.50;;;;;;4961884;28;20069;-77
2020/12/17 07:45:50;;;;;;;454.05;121.25;;;3.90;97.40;;;;;;4961473;28;20504;-77
2020/12/17 07:48:34;;;;;;;;;;;3.90;97.50;;;;;;4962637;28;20031;-77
2020/12/17 07:51:12;;;;;;;353.45;88.68;;;3.90;97.40;;;;;;4961848;29;19921;-77
2020/12/17 07:53:40;;;;;;;931.50;319.48;;;3.90;97.50;;;;;;4974459;28;20512;-77
2020/12/17 07:56:06;;;;;;;430.13;132.52;;;3.90;97.50;;;;;;4976045;28;20047;-77
2020/12/17 07:58:32;;;;;;;274.65;80.43;;;4.00;97.50;;;;;;4962096;28;20547;-77
2020/12/17 08:00:59;;;;;;;291.33;74.93;;;4.00;97.50;;;;;;4959419;29;20129;-77
2020/12/17 08:03:25;;;;;;;296.92;83.10;;;4.00;97.50;;;;;;4959551;29;20070;-76
2020/12/17 08:05:52;;;;;;;266.27;65.90;;;4.00;97.50;;;;;;4960942;28;20019;-76
2020/12/17 08:08:20;;;;;;;278.65;69.47;;;4.00;97.50;;;;;;4961039;28;20059;-77
2020/12/17 08:10:46;;;;;;;308.52;89.72;;;4.00;97.50;;;;;;4961595;29;20038;-77
2020/12/17 08:13:12;;;;;;;329.15;79.72;;;4.00;97.50;;;;;;4960962;28;20053;-77
2020/12/17 08:15:37;;;;;;;;;;;4.00;97.50;;;;;;4960450;29;20557;-78
2020/12/17 08:18:04;;;;;;;404.63;101.25;;;4.00;97.40;;;;;;4975689;28;19925;-77
2020/12/17 08:20:30;;;;;;;323.17;73.43;;;4.00;97.50;;;;;;4976503;28;20103;-78
2020/12/17 08:22:56;;;;;;;568.03;100.03;;;4.00;97.50;;;;;;4962596;29;20575;-78
2020/12/17 08:25:22;;;;;;;;;;;4.00;97.50;;;;;;4960366;29;20078;-78
2020/12/17 08:27:51;;;;;;;457.17;55.70;;;4.00;97.50;;;;;;4962445;28;19917;-78
2020/12/17 08:30:20;;;;;;;557.15;57.40;;;4.00;97.50;;;;;;4958248;28;20065;-77
2020/12/17 08:32:54;;;;;;;463.90;52.42;;;4.00;97.50;;;;;;4958188;28;20602;-78
2020/12/17 08:35:25;;;;;;;361.98;50.42;;;4.00;97.50;;;;;;4956183;28;20126;-77
2020/12/17 08:37:55;;;;;;;520.88;54.05;;;4.10;97.50;;;;;;4953608;29;20031;-77
2020/12/17 08:40:24;;;;;;;391.95;50.90;;;4.00;97.40;;;;;;4955473;28;20083;-78
2020/12/17 08:43:10;;;;;;;211.77;44.00;;;4.10;97.40;;;;;;4957715;29;20031;-78
2020/12/17 08:45:40;;;;;;;614.70;50.88;;;4.10;97.70;;;;;;4961248;28;20028;-78
2020/12/17 08:48:14;;;;;;;728.90;54.53;;;4.10;97.30;;;;;;4960024;29;20037;-77
2020/12/17 08:50:41;;;;;;;319.75;39.55;;;4.10;97.20;;;;;;4959924;28;20030;-77
2020/12/17 08:53:23;;;;;;;342.25;46.05;;;3.90;97.10;;;;;;4958539;29;20031;-78
2020/12/17 08:56:04;;;;;;;293.30;46.03;;;4.00;97.10;;;;;;4963274;28;20054;-77
2020/12/17 08:58:30;;;;;;;463.75;48.03;;;4.00;97.10;;;;;;4961988;28;20038;-78
2020/12/17 09:00:56;;;;;;;520.25;44.42;;;4.00;97.10;;;;;;4961584;28;20039;-78
2020/12/17 09:03:22;;;;;;;;;;;4.00;97.00;;;;;;4974556;28;20031;-79
2020/12/17 09:06:08;;;;;;;183.63;39.00;;;4.00;97.00;;;;;;4963137;28;19914;-78
2020/12/17 09:08:33;;;;;;;271.60;40.85;;;4.00;97.00;;;;;;4961415;29;20076;-77
2020/12/17 09:11:00;;;;;;;;;;;4.00;97.00;;;;;;4976311;28;20039;-77
2020/12/17 09:13:26;;;;;;;264.20;39.57;;;4.00;96.90;;;;;;4957463;28;19911;-76
2020/12/17 09:15:58;;;;;;;;;;;4.00;96.90;;;;;;4957800;29;20039;-76
2020/12/17 09:18:25;;;;;;;357.23;38.53;;;4.00;96.90;;;;;;4960248;28;19918;-78
2020/12/17 09:21:17;;;;;;;258.40;41.83;;;4.10;96.90;;;;;;4958139;28;20046;-79
2020/12/17 09:23:56;;;;;;;268.77;41.72;;;4.10;96.90;;;;;;4956679;29;20039;-77
2020/12/17 09:26:22;;;;;;;133.98;33.63;;;4.10;96.90;;;;;;4955976;29;20149;-78
2020/12/17 09:28:48;;;;;;;;;;;4.20;96.90;;;;;;4970818;28;20527;-76
2020/12/17 09:31:46;;;;;;;230.73;31.73;;;4.20;96.90;;;;;;4955014;28;20390;-77
2020/12/17 09:34:14;;;;;;;179.68;33.28;;;4.20;96.90;;;;;;4944602;29;20046;-77
2020/12/17 09:36:54;;;;;;;187.55;35.17;;;4.20;96.80;;;;;;4958227;28;20052;-77
2020/12/17 09:39:20;;;;;;;131.23;34.67;;;4.20;96.70;;;;;;4958352;28;20119;-77
2020/12/17 09:41:53;;;;;;;;;;;4.20;96.70;;;;;;4971075;28;20122;-77
2020/12/17 09:44:33;;;;;;;296.45;33.70;;;4.20;96.70;;;;;;4954743;28;20550;-77
2020/12/17 09:47:00;;;;;;;207.55;32.72;;;4.30;96.60;;;;;;4953818;28;20027;-78
2020/12/17 09:49:38;;;;;;;133.48;34.97;;;4.30;96.60;;;;;;4953748;28;20047;-77
2020/12/17 09:52:12;;;;;;;126.53;33.67;;;4.30;96.50;;;;;;4936256;29;20448;-77
2020/12/17 09:54:42;;;;;;;154.32;33.55;;;4.30;96.30;;;;;;4936745;29;20032;-78
2020/12/17 09:57:13;;;;;;;129.63;32.65;;;4.30;96.40;;;;;;4938077;29;20063;-77
2020/12/17 09:59:41;;;;;;;145.90;33.35;;;4.30;96.30;;;;;;4940951;29;20522;-76
2020/12/17 10:02:10;;;;;;;179.98;37.42;;;4.20;96.20;;;;;;4955155;29;20039;-77
2020/12/17 10:04:36;;;;;;;210.05;35.55;;;4.20;96.60;;;;;;4938043;29;20023;-77
2020/12/17 10:07:02;;;;;;;;;;;4.20;96.40;;;;;;4937709;29;20055;-77
2020/12/17 10:09:28;;;;;;;325.25;36.50;;;4.20;96.30;;;;;;4937157;29;19914;-77
2020/12/17 10:11:55;;;;;;;;;;;4.20;96.30;;;;;;4938230;29;20057;-78
2020/12/17 10:14:21;;;;;;;428.98;37.83;;;4.20;96.30;;;;;;4937158;29;20295;-77
2020/12/17 10:16:48;;;;;;;189.95;33.40;;;4.20;96.20;;;;;;4937887;29;20034;-77
2020/12/17 10:19:16;;;;;;;234.52;37.28;;;4.20;96.20;;;;;;4938022;29;20039;-77
2020/12/17 10:21:42;;;;;;;481.50;40.90;;;4.20;96.20;;;;;;4938688;29;20032;-77
2020/12/17 10:24:07;;;;;;;;;;;4.20;96.30;;;;;;4960456;29;20051;-78
2020/12/17 10:26:33;;;;;;;361.60;37.28;;;4.20;96.30;;;;;;4953655;29;19910;-77
2020/12/17 10:28:59;;;;;;;;;;;4.20;96.30;;;;;;4938704;29;20032;-78
2020/12/17 10:31:26;;;;;;;419.00;41.70;;;4.20;96.20;;;;;;4933926;29;19914;-77
2020/12/17 10:33:52;;;;;;;205.40;38.35;;;4.20;96.20;;;;;;4949957;29;20036;-77
2020/12/17 10:36:17;;;;;;;;;;;4.20;96.20;;;;;;4936244;29;20108;-79
2020/12/17 10:38:43;;;;;;;317.65;40.53;;;4.10;96.20;;;;;;4934659;29;19911;-78
2020/12/17 10:41:08;;;;;;;;;;;4.20;96.20;;;;;;4941059;29;20036;-78
2020/12/17 10:43:34;;;;;;;513.40;102.20;;;4.20;96.30;;;;;;4951928;29;19915;-76
2020/12/17 10:45:59;;;;;;;;;;;4.20;96.30;;;;;;4954907;28;20050;-76
2020/12/17 10:48:25;;;;;;;344.75;110.03;;;4.20;96.10;;;;;;4969437;28;19921;-78
2020/12/17 10:50:50;;;;;;;;;;;4.10;96.10;;;;;;4954290;29;20046;-77
2020/12/17 10:53:16;;;;;;;214.20;43.35;;;4.10;96.10;;;;;;4953578;29;20018;-78
2020/12/17 10:55:42;;;;;;;;;;;4.10;96.10;;;;;;4971307;28;20086;-78
2020/12/17 10:58:08;;;;;;;413.83;40.78;;;4.10;96.00;;;;;;4956199;28;20356;-77
2020/12/17 11:00:35;;;;;;;324.23;55.88;;;4.10;95.90;;;;;;4972299;28;20043;-78
2020/12/17 11:03:01;;;;;;;172.75;34.05;;;4.00;95.80;;;;;;4959046;28;20042;-79
2020/12/17 11:05:26;;;;;;;158.48;41.35;;;4.00;95.90;;;;;;4958611;29;20067;-78
2020/12/17 11:07:52;;;;;;;;;;;4.00;96.00;;;;;;4962597;28;20027;-78
2020/12/17 11:10:18;;;;;;;144.43;31.83;;;4.00;96.00;;;;;;4962710;28;19910;-78
2020/12/17 11:12:43;;;;;;;;;;;4.00;96.00;;;;;;4960665;28;20118;-78
2020/12/17 11:15:09;;;;;;;185.65;43.00;;;4.00;96.00;;;;;;4959225;28;19910;-78
2020/12/17 11:17:35;;;;;;;278.52;111.70;;;3.90;95.90;;;;;;4968881;28;20063;-78
2020/12/17 11:20:01;;;;;;;;;;;3.90;95.90;;;;;;4952862;29;20074;-78
2020/12/17 11:22:27;;;;;;;147.52;42.53;;;3.90;95.90;;;;;;4973657;28;19911;-78
2020/12/17 11:24:52;;;;;;;;;;;3.90;95.90;;;;;;4975651;28;20037;-78
2020/12/17 11:27:18;;;;;;;113.10;28.20;;;3.90;95.90;;;;;;4960636;29;19907;-78
2020/12/17 11:29:44;;;;;;;;;;;3.90;95.90;;;;;;4968360;29;20035;-78
2020/12/17 11:32:09;;;;;;;98.30;28.55;;;3.90;95.90;;;;;;4962295;29;20268;-77
2020/12/17 11:34:35;;;;;;;;;;;3.90;96.00;;;;;;4952719;29;20077;-76
2020/12/17 11:37:00;;;;;;;109.65;29.05;;;3.90;96.00;;;;;;4954012;28;19906;-77
2020/12/17 11:39:26;;;;;;;;;;;3.90;96.00;;;;;;4955642;29;20050;-78
2020/12/17 11:41:51;;;;;;;96.20;28.63;;;3.90;95.80;;;;;;4954604;28;19921;-76
2020/12/17 11:44:17;;;;;;;;;;;3.90;95.80;;;;;;4953383;29;20083;-78
2020/12/17 11:46:44;;;;;;;108.82;33.63;;;3.90;95.80;;;;;;4956192;28;19910;-77
2020/12/17 11:49:10;;;;;;;105.43;38.80;;;3.90;95.70;;;;;;4974694;28;20516;-78
2020/12/17 11:51:35;;;;;;;;;;;3.90;95.80;;;;;;4965510;28;20045;-78
2020/12/17 11:54:01;;;;;;;87.15;24.65;;;3.90;95.80;;;;;;4968001;28;19911;-78
2020/12/17 11:56:27;;;;;;;;;;;3.80;95.70;;;;;;4960928;29;20103;-77
2020/12/17 11:58:52;;;;;;;91.47;25.65;;;3.80;95.70;;;;;;4973580;28;19911;-77
2020/12/17 12:01:18;;;;;;;;;;;3.80;95.60;;;;;;4972599;28;20043;-77
2020/12/17 12:03:44;;;;;;;85.80;24.85;;;3.70;95.60;;;;;;4974315;28;19911;-79
2020/12/17 12:06:13;;;;;;;;;;;3.70;95.70;;;;;;4954799;29;20046;-77
2020/12/17 12:08:38;;;;;;;95.40;30.88;;;3.70;95.70;;;;;;4957342;28;19906;-78
2020/12/17 12:11:04;;;;;;;;;;;3.70;95.70;;;;;;4959042;28;20599;-76
2020/12/17 12:13:29;;;;;;;102.00;43.30;;;3.80;95.70;;;;;;4960578;28;19965;-76
2020/12/17 12:15:55;;;;;;;;;;;3.80;95.60;;;;;;4970538;28;20035;-76
2020/12/17 12:18:21;;;;;;;127.00;59.90;;;3.80;95.60;;;;;;4954014;29;19993;-77
2020/12/17 12:20:46;;;;;;;;;;;3.80;95.60;;;;;;4954857;28;20035;-77
2020/12/17 12:23:15;;;;;;;185.30;104.50;;;3.80;95.60;;;;;;4953017;29;19937;-77
2020/12/17 12:25:42;;;;;;;174.02;90.95;;;3.80;95.50;;;;;;4953598;29;20035;-77
2020/12/17 12:28:07;;;;;;;133.80;56.30;;;3.80;95.40;;;;;;4957560;29;20042;-76
2020/12/17 12:30:33;;;;;;;;;;;3.80;95.50;;;;;;4972226;28;20035;-77
2020/12/17 12:33:00;;;;;;;119.07;52.67;;;3.80;95.60;;;;;;4955844;29;19910;-77
2020/12/17 12:35:25;;;;;;;133.85;55.78;;;3.80;95.60;;;;;;4957639;29;20120;-76
2020/12/17 12:37:51;;;;;;;;;;;3.70;95.50;;;;;;4960135;29;20039;-77
2020/12/17 12:40:17;;;;;;;138.10;55.22;;;3.70;95.50;;;;;;4958064;29;19924;-77
2020/12/17 12:42:42;;;;;;;;;;;3.70;95.50;;;;;;4957971;29;20051;-76
2020/12/17 12:45:08;;;;;;;104.40;46.83;;;3.70;95.60;;;;;;4958188;28;20446;-76
2020/12/17 12:47:34;;;;;;;;;;;3.70;95.50;;;;;;4960164;29;20118;-77
2020/12/17 12:49:59;;;;;;;144.77;64.65;;;3.60;95.20;;;;;;4978722;28;19918;-77
2020/12/17 12:52:25;;;;;;;;;;;3.60;95.30;;;;;;4964117;29;20409;-76
2020/12/17 12:54:51;;;;;;;181.82;88.47;;;3.50;95.30;;;;;;4959996;29;19984;-77
2020/12/17 12:57:16;;;;;;;;;;;3.50;95.30;;;;;;4962216;29;20075;-77
2020/12/17 12:59:42;;;;;;;102.50;35.92;;;3.50;95.40;;;;;;4974357;28;19918;-77
2020/12/17 13:02:07;;;;;;;;;;;3.50;95.40;;;;;;4957647;28;20027;-77
2020/12/17 13:04:33;;;;;;;108.28;36.80;;;3.50;95.50;;;;;;4974424;28;19925;-77
2020/12/17 13:06:59;;;;;;;;;;;3.50;95.50;;;;;;4954734;28;20067;-77